Kodiak, AK

2:38 PM AKDT en Agosto 22, 2017 (GMT -0800)
Rezanof & Armstrong | | Change Station

Alt 75 ft 57.80 °N, 152.38 °W | Updated 6 seconds ago

Clear
Despejado
68.4 ° F
Sensación térmica 68.4 ° F
N
6.9
Viento Variable Viento desde ENE
Gusts 11.4 mph

Hoy
Alta -- | Baja -- ° F
--% Posibilidad de precipitaciones
Ayer
Alta -- | Baja -- ° F
Precip. -- pul
Presión 29.77 pul
Visibilidad 10.0 Millas
Nubes Despejado
Punto de rocío 43 ° F
Humedad 40%
Precipitaciones 0.00 pul
Espesor de la nieve No disponible.
6:49 AM 9:33 PM
Luna nueva, 2% visible
METAR PADQ 222153Z 30011G18KT 10SM CLR 20/08 A2977 RMK AO2 SLP081 T02000078
Presión 29.77 pul
Visibilidad 10.0 Millas
Nubes Despejado
Punto de rocío 43 ° F
Humedad 40%
Precipitaciones 0.00 pul
Espesor de la nieve No disponible.
6:49 AM 9:33 PM
Luna nueva, 2% visible
METAR PADQ 222153Z 30011G18KT 10SM CLR 20/08 A2977 RMK AO2 SLP081 T02000078

Get Severe Weather Alerts

Thanks for signing up!

Be on the lookout for a verification email in your inbox.

You'll start receiving the daily forecast at 6 AM.

×

10-Day Weather Forecast

Almanac

Astronomía

Aug. 22, 2017 Salida Puesta
Hora real
Crepúsculo civil
Crepúsculo náutico
Crepúsculo astronómico
Luna
Horas de luz
Horas de luz
Tomorrow will be .
, % of the Moon is Illuminated

Extremos de hoy

Máximos del estado Bajos del estado

Community

WunderPhotos

Category 6

Welcome to Category 6. This is the collective home for Weather Underground's featured writeups by Dr. Jeff Masters (right), Bob Henson (left), Chris Burt, and other regular contributors.

Nearby

Calidad del aire

  Calidad del aire Índice AQ Contaminante
Not available.

Grosos de nieve

Estación Profundido Altura

Actividad de terremotos

Ciudad Distance Mag. Tiempo y dato
Magnitud mínima muestra es 2,5.

Temperaturas de aguas costeras

Lugar Temperatura

Stations

Estaciones meteorológicas cercanas

Ubicación de la estación Temp. Vientos helados Punto de rocío Humedad Viento Precip. Alt Actualizado Tipo
                   

Watches & Warnings

There are currently no watches in effect.